TAF and METAR

METAR for Teniente R. Marsh Airport

SCRM 201400Z 10008KT 8000 -SN OVC016 M02/M04 Q0968 NOSIG
Report created 20. sep 16:00
wind 8 knots from E (100°) visibility 8000 meters light snow overcast at 1600 feet Temperature -2° with dewpoint at -4° (Humidity 86.15%) Pressure 968 hPa no significant weather change expected the next couple of hours
No TAF available for Teniente R. Marsh Airport
Teniente R. Marsh Airport in Chile at 45m

Latest 5 airports